Time;durP1;ratioP1;P1;durP2;ratioP2;P2;SDS_P1;SDS_P2;PMS_P1;PMS_P2;Temp;Humidity;BMP_temperature;BMP_pressure;BME280_temperature;BME280_humidity;BME280_pressure;Samples;Min_cycle;Max_cycle;Signal;HPM_P1;HPM_P2
2022/08/02 00:02:19;;;;;;;6.28;3.38;;;;;;;19.80;84.65;99971.41;12180625;19;20047;-85
2022/08/02 00:06:21;;;;;;;4.93;3.58;;;;;;;19.76;84.56;99974.00;12196440;19;20066;-84
2022/08/02 00:10:24;;;;;;;4.00;3.00;;;;;;;19.65;86.36;99980.91;12196877;19;20098;-83
2022/08/02 00:14:26;;;;;;;6.65;3.78;;;;;;;19.56;87.40;99974.31;12173373;19;20085;-83
2022/08/02 00:18:27;;;;;;;5.35;4.03;;;;;;;19.49;87.60;99962.72;12198845;19;20013;-84
2022/08/02 00:22:29;;;;;;;6.45;4.10;;;;;;;19.43;88.11;99959.19;12185105;19;20010;-83
2022/08/02 00:26:31;;;;;;;5.78;3.30;;;;;;;19.34;88.30;99952.63;12209099;19;20015;-83
2022/08/02 00:30:33;;;;;;;4.47;3.67;;;;;;;19.28;88.78;99959.44;12257396;19;20021;-84
2022/08/02 00:34:35;;;;;;;5.18;3.47;;;;;;;19.18;89.52;99962.38;12203023;19;21272;-84
2022/08/02 00:38:38;;;;;;;6.72;4.22;;;;;;;19.12;90.11;99958.84;12217756;19;20007;-84
2022/08/02 00:42:40;;;;;;;4.57;3.55;;;;;;;19.10;90.21;99970.31;12223326;19;20675;-83
2022/08/02 00:46:42;;;;;;;6.10;3.53;;;;;;;19.07;90.50;99970.94;12198708;19;20011;-83
2022/08/02 00:50:44;;;;;;;4.55;3.50;;;;;;;19.02;91.42;99972.97;12219324;19;20010;-83
2022/08/02 00:54:45;;;;;;;4.68;3.63;;;;;;;19.01;91.13;99969.34;12212989;19;20026;-83
2022/08/02 00:58:47;;;;;;;4.15;3.30;;;;;;;18.95;91.87;99980.88;12201052;19;20015;-83
2022/08/02 01:02:49;;;;;;;4.78;3.70;;;;;;;18.92;93.09;99984.28;12208212;19;20062;-83
2022/08/02 01:06:51;;;;;;;4.13;3.38;;;;;;;18.89;93.18;99980.97;12217206;19;20014;-84
2022/08/02 01:10:52;;;;;;;5.20;3.78;;;;;;;18.88;93.60;99982.06;12182365;19;20388;-84
2022/08/02 01:15:06;;;;;;;4.53;3.58;;;;;;;18.89;93.34;99983.75;12218276;19;20010;-84
2022/08/02 01:19:26;;;;;;;4.45;3.65;;;;;;;18.83;93.60;99987.75;12221513;19;20031;-83
2022/08/02 01:23:55;;;;;;;5.53;4.00;;;;;;;18.81;93.77;99994.78;12195840;19;20006;-85
2022/08/02 01:28:05;;;;;;;4.97;3.67;;;;;;;18.74;94.58;99989.56;12208306;19;20010;-85
2022/08/02 01:32:12;;;;;;;6.25;3.40;;;;;;;18.73;94.13;99987.03;12187645;19;20015;-83
2022/08/02 01:36:17;;;;;;;5.78;3.95;;;;;;;18.67;94.50;99989.88;12211145;19;20034;-82
2022/08/02 01:40:31;;;;;;;6.10;3.25;;;;;;;18.64;94.34;99984.91;12216263;19;20023;-84
2022/08/02 01:44:36;;;;;;;5.43;3.50;;;;;;;18.61;94.75;99979.91;12193600;19;20010;-84
2022/08/02 01:48:40;;;;;;;4.47;3.65;;;;;;;18.60;94.22;99971.84;12210142;19;20014;-84
2022/08/02 01:52:50;;;;;;;5.82;3.60;;;;;;;18.60;95.00;99977.44;12180732;19;20519;-85
2022/08/02 01:56:56;;;;;;;3.97;3.33;;;;;;;18.59;94.79;99979.41;12212510;19;20007;-84
2022/08/02 02:00:59;;;;;;;4.47;3.20;;;;;;;18.56;95.06;99971.63;12211206;19;20017;-84
2022/08/02 02:05:02;;;;;;;6.03;3.70;;;;;;;18.51;95.29;99974.47;12187196;19;20019;-84
2022/08/02 02:09:05;;;;;;;6.15;4.05;;;;;;;18.47;95.21;99978.97;12208483;19;20024;-84
2022/08/02 02:13:08;;;;;;;;;;;;;;;18.40;95.42;99973.75;12207980;19;20517;-84
2022/08/02 02:17:12;;;;;;;3.90;3.05;;;;;;;18.34;94.97;99979.72;12193818;19;20428;-84
2022/08/02 02:21:34;;;;;;;5.28;3.67;;;;;;;18.28;95.92;99984.50;12209690;19;20009;-84
2022/08/02 02:25:41;;;;;;;5.15;3.83;;;;;;;18.24;96.72;99985.41;12192241;19;20505;-85
2022/08/02 02:29:50;;;;;;;4.15;3.42;;;;;;;18.20;96.92;99980.44;12222471;19;20013;-84
2022/08/02 02:34:12;;;;;;;5.38;3.95;;;;;;;18.17;97.73;99975.44;12215023;19;20010;-85
2022/08/02 02:38:16;;;;;;;6.93;3.63;;;;;;;18.13;97.42;99974.38;12194045;19;20014;-85
2022/08/02 02:42:25;;;;;;;4.70;3.75;;;;;;;18.10;97.69;99980.53;12220532;19;20006;-85
2022/08/02 02:46:29;;;;;;;4.13;3.38;;;;;;;18.02;97.69;99980.34;12192509;19;20039;-85
2022/08/02 02:50:32;;;;;;;4.25;3.38;;;;;;;17.89;99.21;99981.88;12212331;19;20022;-84
2022/08/02 02:54:35;;;;;;;5.28;3.88;;;;;;;17.81;99.58;99976.94;12208690;19;20074;-84
2022/08/02 02:58:38;;;;;;;6.85;3.95;;;;;;;17.83;99.49;99983.88;12205017;19;20024;-84
2022/08/02 03:02:41;;;;;;;;;;;;;;;17.77;100.00;99988.69;12222015;19;20448;-84
2022/08/02 03:06:42;;;;;;;6.97;3.70;;;;;;;17.70;99.80;99985.38;12215006;19;20713;-84
2022/08/02 03:10:44;;;;;;;6.05;4.28;;;;;;;17.65;100.00;99979.03;12184621;19;20020;-84
2022/08/02 03:14:46;;;;;;;4.93;3.67;;;;;;;17.58;100.00;99995.22;12217320;19;20571;-83
2022/08/02 03:18:50;;;;;;;5.20;3.85;;;;;;;17.55;100.00;99996.66;12219791;19;20006;-83
2022/08/02 03:22:51;;;;;;;4.65;3.63;;;;;;;17.52;100.00;99995.28;12190081;19;20003;-84
2022/08/02 03:26:53;;;;;;;4.88;3.85;;;;;;;17.43;100.00;99996.19;12214070;19;20078;-84
2022/08/02 03:30:55;;;;;;;4.75;3.90;;;;;;;17.43;100.00;99985.91;12209305;19;20010;-84
2022/08/02 03:34:57;;;;;;;4.27;3.27;;;;;;;17.45;100.00;99985.59;12185586;19;20031;-84
2022/08/02 03:39:00;;;;;;;4.28;3.72;;;;;;;17.49;100.00;99981.09;12217595;19;20010;-85
2022/08/02 03:43:02;;;;;;;10.50;3.80;;;;;;;17.55;100.00;99974.38;12210801;19;20070;-84
2022/08/02 03:47:06;;;;;;;3.97;3.35;;;;;;;17.63;100.00;99978.47;12183774;19;20670;-84
2022/08/02 03:51:07;;;;;;;4.90;3.85;;;;;;;17.70;100.00;99978.97;12204395;19;20021;-83
2022/08/02 03:55:11;;;;;;;8.80;3.50;;;;;;;17.72;100.00;99980.31;12210602;19;20023;-84
2022/08/02 03:59:13;;;;;;;6.70;3.65;;;;;;;17.71;100.00;99978.66;12185660;19;20389;-84
2022/08/02 04:03:16;;;;;;;5.50;3.47;;;;;;;17.70;100.00;99985.38;12207971;19;20010;-84
2022/08/02 04:07:20;;;;;;;7.10;3.63;;;;;;;17.68;100.00;99979.25;12208456;19;20018;-84
2022/08/02 04:11:42;;;;;;;5.15;3.97;;;;;;;17.68;100.00;99978.44;12229435;19;20472;-84
2022/08/02 04:15:45;;;;;;;5.35;3.47;;;;;;;17.66;100.00;99975.09;12223909;19;20010;-85
2022/08/02 04:19:55;;;;;;;4.30;3.47;;;;;;;17.66;100.00;99992.66;12191766;19;20007;-85
2022/08/02 04:23:57;;;;;;;4.15;3.28;;;;;;;17.63;100.00;99993.22;12213985;19;20058;-84
2022/08/02 04:28:00;;;;;;;5.22;3.70;;;;;;;17.60;100.00;99993.81;12204247;19;20007;-85
2022/08/02 04:32:19;;;;;;;4.22;3.72;;;;;;;17.56;100.00;99987.19;12180920;19;20011;-85
2022/08/02 04:36:21;;;;;;;;;;;;;;;17.56;100.00;99986.34;12204849;19;20548;-83
2022/08/02 04:40:32;;;;;;;5.03;3.70;;;;;;;17.52;100.00;99995.28;12187000;19;19974;-83
2022/08/02 04:44:34;;;;;;;5.00;3.90;;;;;;;17.52;100.00;100002.81;12204516;19;20024;-84
2022/08/02 04:48:35;;;;;;;7.60;4.03;;;;;;;17.51;100.00;100003.94;12202867;19;20019;-83
2022/08/02 04:52:37;;;;;;;5.10;3.70;;;;;;;17.51;100.00;100007.53;12185165;19;20401;-83
2022/08/02 04:56:45;;;;;;;4.68;4.05;;;;;;;17.51;100.00;100001.97;12205470;19;20009;-84
2022/08/02 05:00:47;;;;;;;4.70;3.85;;;;;;;17.61;100.00;100014.16;12200440;19;20018;-83
2022/08/02 05:04:50;;;;;;;6.15;3.60;;;;;;;17.76;100.00;100022.41;12186387;19;20027;-84
2022/08/02 05:08:52;;;;;;;5.85;4.07;;;;;;;17.90;100.00;100030.94;12191608;19;20018;-83
2022/08/02 05:12:54;;;;;;;4.83;3.67;;;;;;;18.02;100.00;100031.34;12199438;19;20034;-84
2022/08/02 05:16:56;;;;;;;7.63;3.33;;;;;;;18.12;100.00;100034.06;12180881;19;20026;-85
2022/08/02 05:21:15;;;;;;;4.90;3.67;;;;;;;18.26;100.00;100038.94;12200262;19;20070;-86
2022/08/02 06:39:45;;;;;;;3.30;2.97;;;;;;;21.35;87.84;100049.97;12223472;19;20074;-84
2022/08/02 06:43:58;;;;;;;5.35;2.60;;;;;;;21.48;87.18;100047.50;12187350;19;20410;-85
2022/08/02 08:08:04;;;;;;;4.20;2.08;;;;;;;24.55;55.58;100039.97;12199451;19;20022;-85
2022/08/02 08:12:19;;;;;;;3.65;1.70;;;;;;;24.75;55.05;100038.38;12204294;19;20078;-84
2022/08/02 08:16:27;;;;;;;1.92;1.48;;;;;;;24.94;53.59;100039.94;12199749;19;20031;-82
2022/08/02 08:43:24;;;;;;;3.33;1.25;;;;;;;26.65;43.54;100022.09;12194490;19;51874;-84
2022/08/02 08:47:35;;;;;;;4.53;1.15;;;;;;;26.71;42.92;100027.19;12183615;19;20712;-83
2022/08/02 08:51:42;;;;;;;3.20;1.30;;;;;;;26.90;42.29;100031.41;12212985;19;20073;-84
2022/08/02 08:55:44;;;;;;;1.77;1.30;;;;;;;27.05;40.32;100039.16;12203191;19;20002;-83
2022/08/02 08:59:46;;;;;;;4.20;1.25;;;;;;;27.06;41.99;100037.97;12215727;19;20022;-83
2022/08/02 09:03:47;;;;;;;2.07;1.27;;;;;;;27.24;41.68;100036.56;12206875;19;20575;-84
2022/08/02 09:07:52;;;;;;;1.50;1.17;;;;;;;27.46;41.42;100023.09;12190622;19;20037;-83
2022/08/02 09:12:12;;;;;;;2.08;1.10;;;;;;;27.76;39.70;100031.22;12214726;19;20038;-83
2022/08/02 09:16:25;;;;;;;2.50;1.20;;;;;;;27.84;40.35;100024.59;12218816;19;20007;-83
2022/08/02 09:20:27;;;;;;;1.52;1.13;;;;;;;27.84;39.24;100019.78;12188504;19;20014;-83
2022/08/02 09:24:44;;;;;;;2.83;1.30;;;;;;;27.64;38.50;100018.75;12219127;19;20037;-82
2022/08/02 10:03:24;;;;;;;3.08;1.23;;;;;;;28.93;35.90;100001.53;12187110;19;20014;-82
2022/08/02 10:07:35;;;;;;;1.83;1.30;;;;;;;28.97;35.52;99994.78;12208210;19;20509;-81
2022/08/02 10:11:38;;;;;;;2.42;1.48;;;;;;;29.07;34.93;99990.56;12206946;19;20339;-81
2022/08/02 10:15:40;;;;;;;1.98;1.35;;;;;;;29.38;34.58;99992.44;12207659;19;20365;-80
2022/08/02 10:19:51;;;;;;;3.58;1.55;;;;;;;29.43;33.64;99989.31;12177876;19;20028;-80
2022/08/02 10:24:08;;;;;;;3.05;1.40;;;;;;;29.57;33.66;99976.59;12206481;19;20420;-80
2022/08/02 10:28:14;;;;;;;3.53;1.30;;;;;;;29.58;33.37;99969.75;12204997;19;20066;-81
2022/08/02 10:32:30;;;;;;;2.33;1.60;;;;;;;29.84;33.23;99964.22;12183147;19;20037;-81
2022/08/02 10:36:33;;;;;;;2.67;1.40;;;;;;;29.88;32.83;99969.97;12205385;19;19999;-81
2022/08/02 10:40:41;;;;;;;4.05;1.40;;;;;;;29.91;33.56;99960.69;12199892;19;20563;-80
2022/08/02 10:44:44;;;;;;;3.50;1.45;;;;;;;30.36;32.53;99959.91;12199556;19;20129;-80
2022/08/02 10:49:07;;;;;;;2.80;1.48;;;;;;;30.54;31.43;99950.84;12205302;19;20037;-80
2022/08/02 10:53:33;;;;;;;2.00;1.65;;;;;;;30.55;31.60;99955.31;12186878;19;20028;-81
2022/08/02 10:57:35;;;;;;;1.92;1.30;;;;;;;30.47;31.89;99956.44;12197990;19;20002;-80
2022/08/02 11:01:42;;;;;;;1.77;1.27;;;;;;;30.49;31.21;99949.16;12179875;19;20349;-81
2022/08/02 11:06:05;;;;;;;3.20;1.50;;;;;;;29.87;32.26;99946.44;12203439;19;20771;-81
2022/08/02 11:10:37;;;;;;;1.65;1.20;;;;;;;29.38;32.69;99949.06;12202421;19;20015;-81
2022/08/02 11:14:42;;;;;;;2.20;1.40;;;;;;;29.64;32.96;99943.53;12173344;19;20695;-81
2022/08/02 11:18:50;;;;;;;1.90;1.45;;;;;;;29.91;32.13;99933.09;12200511;19;20078;-81
2022/08/02 11:22:54;;;;;;;3.08;1.50;;;;;;;30.02;31.56;99938.97;12181572;19;20002;-81
2022/08/02 11:26:57;;;;;;;2.38;1.20;;;;;;;29.55;32.77;99936.44;12211253;19;20086;-80
2022/08/02 11:31:00;;;;;;;2.67;1.42;;;;;;;30.17;31.61;99928.69;12218246;19;20515;-80
2022/08/02 11:35:03;;;;;;;2.63;1.33;;;;;;;30.73;31.26;99925.16;12215880;19;20015;-80
2022/08/02 11:39:12;;;;;;;;;;;;;;;30.67;30.70;99921.00;12195833;19;20510;-81
2022/08/02 11:43:21;;;;;;;3.08;1.20;;;;;;;30.42;31.52;99921.41;12212480;19;19926;-80
2022/08/02 11:47:23;;;;;;;1.30;1.20;;;;;;;30.87;30.42;99928.22;12187014;19;20031;-82
2022/08/02 11:51:25;;;;;;;3.95;1.70;;;;;;;31.17;29.85;99921.72;12211138;19;20010;-81
2022/08/02 11:55:28;;;;;;;2.50;1.42;;;;;;;32.07;30.10;99917.09;12202500;19;20863;-82
2022/08/02 11:59:30;;;;;;;2.33;1.45;;;;;;;32.70;28.61;99921.69;12193621;19;20430;-82
2022/08/02 12:03:40;;;;;;;3.55;1.42;;;;;;;33.22;27.16;99915.88;12191708;19;20027;-81
2022/08/02 12:07:44;;;;;;;3.60;1.50;;;;;;;33.87;27.71;99909.16;12176089;19;20038;-81
2022/08/02 12:11:50;;;;;;;2.63;1.60;;;;;;;34.08;25.76;99914.09;12203643;19;20042;-83
2022/08/02 12:15:51;;;;;;;1.70;1.50;;;;;;;33.93;25.93;99910.38;12197960;19;20035;-83
2022/08/02 12:19:53;;;;;;;2.08;1.55;;;;;;;33.98;26.36;99914.91;12178520;19;20078;-81
2022/08/02 12:23:55;;;;;;;;;;;;;;;33.86;26.28;99913.25;12203295;19;20022;-80
2022/08/02 12:28:16;;;;;;;1.80;1.40;;;;;;;34.37;25.86;99912.06;12197341;19;19922;-82
2022/08/02 12:32:23;;;;;;;1.98;1.75;;;;;;;34.90;25.01;99913.25;12180683;19;20015;-81
2022/08/02 12:36:28;;;;;;;1.77;1.58;;;;;;;35.08;24.68;99908.31;12203044;19;20499;-82
2022/08/02 12:40:31;;;;;;;1.63;1.35;;;;;;;36.07;24.11;99908.22;12207822;19;20019;-83
2022/08/02 12:44:36;;;;;;;3.08;1.63;;;;;;;37.22;22.97;99901.38;12177669;19;20031;-83
2022/08/02 12:48:40;;;;;;;1.90;1.60;;;;;;;37.26;22.56;99891.47;12208182;19;20042;-82
2022/08/02 12:53:09;;;;;;;3.88;1.65;;;;;;;37.37;22.46;99888.47;12182794;19;20010;-82
2022/08/02 12:57:17;;;;;;;1.80;1.40;;;;;;;37.90;21.75;99883.19;12209803;19;20046;-81
2022/08/02 13:01:21;;;;;;;1.75;1.38;;;;;;;38.37;21.35;99881.19;12208686;19;20367;-82
2022/08/02 13:05:24;;;;;;;1.90;1.50;;;;;;;38.23;21.37;99878.56;12180392;19;20006;-79
2022/08/02 13:09:26;;;;;;;1.83;1.42;;;;;;;37.26;21.48;99879.16;12204423;19;20007;-82
2022/08/02 13:13:29;;;;;;;2.10;1.40;;;;;;;37.84;20.78;99869.31;12203531;19;20026;-82
2022/08/02 13:17:31;;;;;;;5.28;1.92;;;;;;;38.61;20.23;99866.78;12180960;19;20018;-80
2022/08/02 13:21:33;;;;;;;5.15;1.33;;;;;;;38.74;19.87;99865.72;12199608;19;20014;-82
2022/08/02 13:25:41;;;;;;;1.80;1.42;;;;;;;39.12;19.21;99862.50;12178352;19;20039;-81
2022/08/02 13:29:43;;;;;;;2.00;1.48;;;;;;;39.14;19.67;99864.94;12208514;19;20027;-80
2022/08/02 13:33:44;;;;;;;2.40;1.38;;;;;;;39.51;18.89;99860.84;12203502;19;20057;-81
2022/08/02 13:37:46;;;;;;;1.40;1.20;;;;;;;40.45;18.10;99860.19;12179115;19;20011;-81
2022/08/02 13:41:48;;;;;;;2.00;1.30;;;;;;;40.77;18.35;99850.66;12215340;19;20445;-81
2022/08/02 13:45:50;;;;;;;2.40;1.50;;;;;;;40.54;17.94;99860.34;12199373;19;20014;-79
2022/08/02 13:49:52;;;;;;;2.63;1.27;;;;;;;40.89;17.88;99859.84;12184704;19;20028;-81
2022/08/02 13:53:54;;;;;;;2.95;1.25;;;;;;;41.36;17.45;99844.84;12213607;19;20006;-81
2022/08/02 13:57:56;;;;;;;1.10;1.00;;;;;;;41.66;16.48;99843.50;12200162;19;20077;-81
2022/08/02 14:01:58;;;;;;;2.60;1.17;;;;;;;41.93;16.51;99834.38;12188683;19;20000;-81
2022/08/02 14:05:59;;;;;;;1.30;1.20;;;;;;;41.37;16.78;99826.22;12192994;19;20010;-81
2022/08/02 14:10:01;;;;;;;2.83;1.30;;;;;;;41.66;16.63;99820.34;12207383;19;20018;-81
2022/08/02 14:14:03;;;;;;;4.43;1.10;;;;;;;41.62;16.32;99811.00;12181752;19;20018;-82
2022/08/02 14:18:05;;;;;;;2.08;1.35;;;;;;;41.33;16.78;99819.75;12211503;19;20113;-81
2022/08/02 14:22:07;;;;;;;4.38;1.40;;;;;;;40.85;16.79;99818.69;12206812;19;20107;-81
2022/08/02 14:26:21;;;;;;;2.17;1.30;;;;;;;41.12;16.73;99818.31;12180611;19;20078;-81
2022/08/02 14:30:28;;;;;;;3.50;1.05;;;;;;;41.39;16.38;99809.22;12211329;19;20368;-82
2022/08/02 14:34:30;;;;;;;1.35;1.10;;;;;;;40.71;16.46;99803.38;12195858;19;20011;-81
2022/08/02 14:38:33;;;;;;;1.30;1.20;;;;;;;39.10;17.82;99806.56;12186487;19;20410;-81
2022/08/02 14:42:35;;;;;;;2.08;1.60;;;;;;;37.78;18.82;99801.19;12206900;19;20018;-81
2022/08/02 14:46:42;;;;;;;1.67;1.58;;;;;;;36.91;19.27;99797.91;12201073;19;20078;-81
2022/08/02 14:50:43;;;;;;;1.35;1.13;;;;;;;36.72;19.29;99794.47;12209264;19;20003;-81
2022/08/02 14:54:45;;;;;;;1.90;1.50;;;;;;;37.46;19.28;99790.22;12199879;19;20010;-81
2022/08/02 14:58:47;;;;;;;1.88;1.38;;;;;;;37.32;18.36;99789.16;12183991;19;20027;-80
2022/08/02 15:02:48;;;;;;;1.63;1.40;;;;;;;36.44;18.73;99783.28;12208826;19;20011;-80
2022/08/02 15:06:50;;;;;;;3.13;1.33;;;;;;;35.37;20.08;99782.16;12209462;19;20557;-81
2022/08/02 15:10:52;;;;;;;3.10;1.77;;;;;;;34.97;20.40;99786.44;12187327;19;20409;-81
2022/08/02 15:14:54;;;;;;;1.88;1.48;;;;;;;34.71;20.54;99782.84;12213366;19;20018;-83
2022/08/02 15:18:55;;;;;;;1.35;1.10;;;;;;;34.67;20.61;99776.34;12206209;19;20476;-83
2022/08/02 15:22:57;;;;;;;;;;;;;;;34.24;21.25;99782.19;12220482;19;20019;-83
2022/08/02 15:26:59;;;;;;;;;;;;;;;33.81;21.15;99785.03;12243269;19;19972;-83
2022/08/02 15:31:03;;;;;;;2.25;1.55;;;;;;;33.55;21.64;99784.22;12218891;19;19915;-83
2022/08/02 15:35:08;;;;;;;1.60;0.95;;;;;;;33.31;21.21;99776.38;12199657;19;20026;-84
2022/08/02 15:39:11;;;;;;;1.55;1.25;;;;;;;33.11;21.30;99771.06;12213688;19;20082;-84
2022/08/02 15:43:12;;;;;;;1.88;1.20;;;;;;;33.30;21.25;99772.72;12216586;19;20442;-83
2022/08/02 15:47:14;;;;;;;2.83;1.23;;;;;;;33.45;21.54;99770.69;12190930;19;20010;-83
2022/08/02 15:51:15;;;;;;;;;;;;;;;33.62;21.90;99760.56;12204994;19;20006;-83
2022/08/02 15:55:17;;;;;;;2.27;1.53;;;;;;;33.63;22.36;99767.88;12203978;19;19979;-83
2022/08/02 15:59:19;;;;;;;3.67;1.48;;;;;;;33.34;22.71;99767.81;12188915;19;20418;-84
2022/08/02 16:03:21;;;;;;;2.17;1.42;;;;;;;33.04;23.08;99768.16;12199923;19;20014;-83
2022/08/02 16:07:23;;;;;;;1.83;1.40;;;;;;;32.83;23.40;99759.50;12204427;19;20007;-83
2022/08/02 16:11:25;;;;;;;3.92;1.48;;;;;;;32.61;23.60;99756.56;12177819;19;20015;-83
2022/08/02 16:15:26;;;;;;;3.35;1.48;;;;;;;32.55;23.65;99755.34;12193993;19;20027;-83
2022/08/02 16:19:28;;;;;;;2.72;1.50;;;;;;;32.43;24.25;99753.59;12207646;19;20011;-82
2022/08/02 16:23:51;;;;;;;1.52;1.30;;;;;;;32.34;24.53;99763.75;12177259;19;20404;-82
2022/08/02 16:28:02;;;;;;;1.23;1.05;;;;;;;32.36;23.79;99752.75;12195028;19;20018;-83
2022/08/02 16:32:08;;;;;;;3.45;1.35;;;;;;;32.32;23.96;99741.31;12177569;19;20006;-81
2022/08/02 16:36:12;;;;;;;4.30;1.40;;;;;;;32.32;23.85;99744.19;12193712;19;20011;-82
2022/08/02 16:40:14;;;;;;;2.72;1.60;;;;;;;32.23;24.54;99743.72;12191703;19;20428;-82
2022/08/02 16:44:16;;;;;;;3.67;1.30;;;;;;;32.12;24.84;99737.94;12183460;19;20062;-82
2022/08/02 16:48:17;;;;;;;1.58;1.23;;;;;;;32.00;24.65;99729.72;12201928;19;20011;-82
2022/08/02 16:52:19;;;;;;;3.30;1.40;;;;;;;31.83;25.09;99730.38;12203547;19;20014;-82
2022/08/02 16:56:21;;;;;;;3.85;1.38;;;;;;;31.76;24.60;99734.81;12172324;19;20014;-81
2022/08/02 17:00:24;;;;;;;3.13;1.55;;;;;;;31.47;24.98;99730.94;12195929;19;20002;-82
2022/08/02 17:04:26;;;;;;;4.10;1.45;;;;;;;31.42;25.45;99730.47;12199879;19;20011;-82
2022/08/02 17:08:29;;;;;;;2.35;1.40;;;;;;;31.33;25.29;99727.94;12172988;19;20064;-81
2022/08/02 17:12:33;;;;;;;2.88;1.27;;;;;;;31.18;25.95;99726.97;12201212;19;20728;-82
2022/08/02 17:16:34;;;;;;;4.13;1.70;;;;;;;31.09;25.92;99726.47;12208349;19;20010;-82
2022/08/02 17:20:36;;;;;;;;;;;;;;;30.96;26.06;99725.09;12191674;19;20010;-81
2022/08/02 17:24:40;;;;;;;3.63;1.55;;;;;;;30.85;26.36;99728.66;12212104;19;19914;-81
2022/08/02 17:28:43;;;;;;;2.38;1.63;;;;;;;30.76;26.43;99721.63;12190435;19;20018;-82
2022/08/02 17:33:04;;;;;;;3.83;1.52;;;;;;;30.64;26.78;99722.69;12204643;19;20015;-81
2022/08/02 17:37:07;;;;;;;1.77;1.50;;;;;;;30.49;27.27;99729.38;12213932;19;20006;-81
2022/08/02 17:41:09;;;;;;;3.65;1.48;;;;;;;30.34;27.45;99723.53;12191198;19;20027;-82
2022/08/02 17:45:15;;;;;;;3.53;2.22;;;;;;;30.18;27.60;99725.72;12212280;19;20023;-82
2022/08/02 17:49:37;;;;;;;2.60;1.80;;;;;;;30.11;27.74;99728.47;12207349;19;20015;-81
2022/08/02 17:53:49;;;;;;;3.17;1.50;;;;;;;30.01;27.93;99732.75;12184430;19;20013;-82
2022/08/02 17:57:50;;;;;;;1.67;1.15;;;;;;;29.93;28.07;99728.19;12208872;19;20457;-81
2022/08/02 18:02:00;;;;;;;3.58;1.73;;;;;;;29.87;27.79;99724.88;12197933;19;20003;-82
2022/08/02 18:06:04;;;;;;;2.20;1.60;;;;;;;29.85;28.04;99726.44;12221510;19;20014;-82
2022/08/02 18:10:09;;;;;;;2.33;1.45;;;;;;;29.75;28.09;99719.41;12209875;19;20014;-82
2022/08/02 18:14:14;;;;;;;2.55;1.50;;;;;;;29.50;29.16;99719.75;12188758;19;20092;-82
2022/08/02 18:18:15;;;;;;;3.35;1.70;;;;;;;29.21;29.53;99717.63;12207492;19;20755;-81
2022/08/02 18:22:30;;;;;;;2.80;1.60;;;;;;;28.92;29.55;99721.94;12221626;19;20003;-83
2022/08/02 18:26:40;;;;;;;2.40;1.63;;;;;;;28.68;30.59;99717.44;12203197;19;20007;-83
2022/08/02 18:30:44;;;;;;;2.30;1.40;;;;;;;28.47;30.85;99710.13;12222783;19;20007;-85
2022/08/02 18:35:00;;;;;;;3.60;1.77;;;;;;;28.25;31.60;99713.66;12201287;19;20060;-83
2022/08/02 18:54:06;;;;;;;4.07;1.90;;;;;;;27.13;33.67;99727.09;12192693;19;20378;-83
2022/08/02 18:58:47;;;;;;;3.72;1.75;;;;;;;26.85;34.08;99723.47;12199537;19;20505;-84
2022/08/02 19:03:06;;;;;;;2.58;1.67;;;;;;;26.59;34.43;99727.59;12222361;19;20006;-84
2022/08/02 19:07:28;;;;;;;2.45;1.45;;;;;;;26.33;34.67;99723.19;12247442;19;20034;-84
2022/08/02 19:11:54;;;;;;;6.97;2.42;;;;;;;26.09;35.17;99724.09;12201323;19;20027;-84
2022/08/02 19:21:18;;;;;;;2.45;1.45;;;;;;;25.65;36.05;99725.88;12119077;19;2004003;-86
2022/08/02 19:25:44;;;;;;;4.13;1.50;;;;;;;25.45;36.19;99731.25;12217875;19;20074;-87
2022/08/02 19:30:03;;;;;;;2.65;1.70;;;;;;;25.29;36.85;99735.97;12193459;19;20492;-87
2022/08/02 19:34:12;;;;;;;3.70;1.90;;;;;;;25.14;37.14;99734.66;12206655;19;20468;-86
2022/08/02 19:38:28;;;;;;;2.13;1.60;;;;;;;24.98;37.21;99730.81;12194132;19;20010;-85
2022/08/02 19:42:30;;;;;;;3.38;1.73;;;;;;;24.86;37.46;99734.41;12209836;19;20007;-85
2022/08/02 19:46:52;;;;;;;4.00;1.63;;;;;;;24.74;37.39;99738.00;12195108;19;20033;-85
2022/08/02 19:50:55;;;;;;;4.65;1.88;;;;;;;24.63;37.77;99727.53;12212364;19;20018;-85
2022/08/02 19:55:02;;;;;;;3.40;1.40;;;;;;;24.52;38.00;99735.59;12207412;19;20014;-86
2022/08/02 19:59:45;;;;;;;3.40;1.58;;;;;;;24.45;38.16;99730.53;12193247;19;20007;-86
2022/08/02 20:09:57;;;;;;;2.70;1.40;;;;;;;24.28;38.07;99748.34;12185600;19;20032;-86
2022/08/02 20:14:40;;;;;;;2.30;1.40;;;;;;;24.18;38.29;99743.09;12213384;19;20035;-85
2022/08/02 20:24:01;;;;;;;1.88;1.52;;;;;;;24.01;39.14;99734.81;12218323;19;20082;-86
2022/08/02 20:29:00;;;;;;;3.78;1.50;;;;;;;23.94;38.87;99740.13;12233215;19;20013;-86
2022/08/02 20:33:22;;;;;;;2.00;1.60;;;;;;;23.88;39.05;99728.25;12204688;19;20019;-85
2022/08/02 20:37:46;;;;;;;2.72;1.65;;;;;;;23.84;39.05;99732.94;12216865;19;20358;-86
2022/08/02 20:47:33;;;;;;;1.92;1.60;;;;;;;23.69;39.64;99733.50;12235241;19;20030;-86
2022/08/02 20:57:19;;;;;;;4.05;1.50;;;;;;;23.56;39.74;99733.41;12199077;19;20055;-86
2022/08/02 21:12:14;;;;;;;2.38;1.70;;;;;;;23.48;39.79;99739.88;12199499;19;20020;-84
2022/08/02 21:16:16;;;;;;;3.27;1.30;;;;;;;23.47;39.91;99734.56;12204397;19;20003;-84
2022/08/02 21:20:22;;;;;;;2.38;1.38;;;;;;;23.47;39.95;99741.06;12193617;19;20069;-83
2022/08/02 21:24:30;;;;;;;2.88;1.40;;;;;;;23.45;39.74;99743.38;12219062;19;20035;-83
2022/08/02 21:28:32;;;;;;;2.05;1.63;;;;;;;23.43;39.67;99735.25;12214129;19;20490;-83
2022/08/02 21:32:49;;;;;;;1.92;1.50;;;;;;;23.41;39.85;99734.78;12188413;19;20027;-83
2022/08/02 21:36:52;;;;;;;3.25;1.85;;;;;;;23.41;39.90;99726.34;12214326;19;20043;-83
2022/08/02 21:40:53;;;;;;;2.73;1.60;;;;;;;23.40;39.91;99726.66;12190852;19;20010;-83
2022/08/02 21:44:56;;;;;;;3.55;1.35;;;;;;;23.40;40.01;99733.13;12219130;19;20050;-83
2022/08/02 21:48:59;;;;;;;2.20;1.52;;;;;;;23.40;39.99;99730.31;12216650;19;20079;-83
2022/08/02 21:53:00;;;;;;;3.07;1.70;;;;;;;23.44;39.70;99730.47;12203601;19;20029;-84
2022/08/02 21:57:02;;;;;;;2.23;1.67;;;;;;;23.41;40.13;99731.97;12208709;19;20003;-83
2022/08/02 22:01:04;;;;;;;3.03;1.58;;;;;;;23.43;39.95;99737.25;12220783;19;20050;-83
2022/08/02 22:05:06;;;;;;;1.75;1.35;;;;;;;23.46;40.16;99745.00;12206301;19;20030;-83
2022/08/02 22:09:16;;;;;;;2.40;1.35;;;;;;;23.43;40.16;99743.69;12212511;19;20003;-83
2022/08/02 22:13:39;;;;;;;1.67;1.45;;;;;;;23.43;40.24;99748.50;12216292;19;19998;-83
2022/08/02 22:18:02;;;;;;;2.17;1.27;;;;;;;23.43;40.30;99751.31;12199944;19;20430;-83
2022/08/02 22:22:04;;;;;;;2.80;1.60;;;;;;;23.40;40.39;99751.97;12221390;19;20027;-84
2022/08/02 22:26:06;;;;;;;3.70;1.70;;;;;;;23.39;40.55;99756.78;12199200;19;20028;-83
2022/08/02 22:30:12;;;;;;;2.08;1.70;;;;;;;23.37;40.51;99758.28;12211178;19;20496;-83
2022/08/02 22:34:15;;;;;;;2.47;1.60;;;;;;;23.31;40.61;99759.63;12208271;19;20035;-83
2022/08/02 22:38:37;;;;;;;4.10;1.70;;;;;;;23.30;40.92;99752.38;12192796;19;20017;-84
2022/08/02 22:42:38;;;;;;;4.07;1.50;;;;;;;23.27;40.91;99762.28;12211666;19;20798;-84
2022/08/02 22:46:40;;;;;;;2.67;1.37;;;;;;;23.25;41.14;99760.97;12183747;19;20011;-83
2022/08/02 22:50:42;;;;;;;2.53;1.57;;;;;;;23.23;41.03;99761.31;12209379;19;20034;-83
2022/08/02 22:54:44;;;;;;;4.45;1.63;;;;;;;23.21;40.79;99760.81;12198989;19;20030;-82
2022/08/02 22:58:46;;;;;;;2.40;1.53;;;;;;;23.17;40.90;99757.88;12182123;19;20003;-83
2022/08/02 23:03:09;;;;;;;7.43;1.80;;;;;;;23.19;40.82;99769.56;12206808;19;20351;-83
2022/08/02 23:07:10;;;;;;;2.97;1.75;;;;;;;23.05;42.07;99762.50;12222974;19;20013;-82
2022/08/02 23:11:13;;;;;;;3.93;1.90;;;;;;;22.84;42.93;99767.97;12226260;19;20011;-83
2022/08/02 23:15:14;;;;;;;2.33;1.40;;;;;;;22.62;43.44;99764.22;12218335;19;20434;-83
2022/08/02 23:23:37;;;;;;;2.60;1.50;;;;;;;22.29;43.78;99769.50;12191017;19;20122;-82
2022/08/02 23:27:39;;;;;;;3.28;1.80;;;;;;;22.17;44.43;99772.13;12216339;19;20006;-83
2022/08/02 23:31:51;;;;;;;6.40;1.73;;;;;;;22.07;44.73;99762.00;12189044;19;20006;-82
2022/08/02 23:35:54;;;;;;;2.60;2.20;;;;;;;21.98;44.58;99767.63;12209165;19;20132;-84